Terminal Aerodrome Forecast
Issued by NWS Wilmington, OH

Current Version | Previous Version | Graphics & Text | Print | Product List | Glossary On
Versions: 1 2 3 4 5 6 7 8 9 10 11 12 13 14 15 16 17 18
000
FTUS41 KILN 290257 AAA
TAFCMH
TAF AMD
KCMH 290257Z 2903/2924 00000KT P6SM BKN220
     FM291300 15004KT P6SM SCT040 BKN200
     FM291600 20007KT P6SM BKN040=

USA.gov is the U.S. government's official web portal to all federal, state and local government web resources and services.